Aviation Digital Data Service (ADDS)

Output produced by METARs form (1600 UTC 31 May 2016)
found at http://www.aviationweather.gov/adds/metars/
 
KAOO 311553Z AUTO VRB04KT 10SM FEW065 26/12 A3005 RMK AO2 SLP165 T02610122
KAOO 311453Z AUTO VRB03KT 10SM CLR 26/12 A3006 RMK AO2 SLP167 T02560117 55001
KAOO 311353Z AUTO 00000KT 10SM CLR 23/13 A3005 RMK AO2 SLP168 T02330133
KAOO 311253Z AUTO 00000KT 10SM CLR 21/14 A3005 RMK AO2 SLP167 T02110139
KAOO 311153Z AUTO 29003KT 10SM CLR 18/13 A3006 RMK AO2 SLP168 T01780133 10178 20133 53014
KAOO 311053Z AUTO 00000KT 9SM CLR 16/14 A3004 RMK AO2 SLP163 T01560139
KAOO 310953Z AUTO 00000KT 3SM BR CLR 14/13 A3002 RMK AO2 SLP158 T01440133
KAOO 310943Z AUTO 00000KT 2SM BR CLR 14/13 A3002 RMK AO2 T01390128
KAOO 310853Z AUTO 00000KT 6SM BR CLR 15/13 A3001 RMK AO2 SLP154 T01500133 52003
KAOO 310820Z AUTO 15003KT 4SM BR CLR 14/13 A3001 RMK AO2 T01440133
KAOO 310809Z AUTO 00000KT 1 1/2SM BR CLR 15/14 A3001 RMK AO2 T01500139
KAOO 310753Z AUTO 00000KT 5SM BR CLR 16/14 A3001 RMK AO2 SLP152 T01560144
KAOO 310653Z AUTO 00000KT 6SM BR CLR 16/15 A3000 RMK AO2 SLP150 T01610150
KAOO 310553Z AUTO 00000KT 9SM CLR 17/15 A3000 RMK AO2 SLP150 T01720150 10261 20161 58005
KAOO 310453Z AUTO 00000KT 10SM CLR 17/16 A3001 RMK AO2 SLP153 T01720156 402940156
KAOO 310353Z AUTO 00000KT 10SM CLR 18/16 A3001 RMK AO2 SLP155 T01780156
KAOO 310253Z AUTO 00000KT 10SM CLR 20/16 A3002 RMK AO2 SLP155 T02000161 51010
KAOO 310153Z AUTO 17004KT 10SM CLR 20/17 A3001 RMK AO2 SLP154 T02000167
KAOO 310053Z AUTO 23004KT 10SM SCT065 23/16 A3000 RMK AO2 SLP149 T02330161
KAOO 302353Z AUTO 31007KT 10SM CLR 26/13 A2999 RMK AO2 SLP144 T02610128 10294 20261 53009
KAOO 302253Z AUTO 33010KT 10SM FEW070 SCT085 28/13 A2997 RMK AO2 SLP137 T02780133
KAOO 302153Z AUTO 32012KT 10SM FEW055 BKN090 28/13 A2996 RMK AO2 SLP135 T02830133
KAOO 302053Z AUTO 32009KT 10SM CLR 28/14 A2996 RMK AO2 SLP135 T02830139 56012
KAOO 301953Z AUTO 30011KT 10SM FEW050 28/14 A2997 RMK AO2 LTG DSNT S SLP138 T02830144
KAOO 301853Z AUTO 31010KT 10SM FEW045 28/16 A2998 RMK AO2 LTG DSNT S SLP143 T02830156
KAOO 301753Z AUTO VRB05KT 10SM FEW044 28/15 A3000 RMK AO2 SLP148 T02830150 10283 20178 58012
KAOO 301653Z AUTO VRB03KT 10SM CLR 27/16 A3001 RMK AO2 SLP152 T02720156
KAOO 301553Z AUTO 00000KT 10SM CLR 26/15 A3003 RMK AO2 SLP157 T02560150
KAOO 301453Z AUTO 25005KT 10SM CLR 24/15 A3003 RMK AO2 SLP161 T02440150 58007
KAOO 301353Z AUTO 24005KT 10SM CLR 22/14 A3005 RMK AO2 SLP167 T02220139
KAOO 301253Z AUTO 23004KT 10SM CLR 19/14 A3005 RMK AO2 SLP170 T01940144
KAOO 301153Z AUTO 00000KT 5SM BR CLR 18/16 A3005 RMK AO2 SLP170 T01780156 10178 20156 51005
KAOO 301053Z AUTO 00000KT 5SM BR SCT120 16/15 A3005 RMK AO2 SLP170 T01610150
KAOO 300953Z AUTO 00000KT 6SM BR BKN120 16/14 A3005 RMK AO2 SLP170 T01610144
KAOO 300853Z AUTO 00000KT 6SM BR SCT120 16/14 A3004 RMK AO2 SLP164 T01560144 56008
KAOO 300753Z AUTO 00000KT 6SM BR CLR 16/14 A3004 RMK AO2 SLP163 T01610144
KAOO 300653Z AUTO 00000KT 8SM CLR 16/14 A3005 RMK AO2 SLP166 T01610144
KAOO 300553Z AUTO 00000KT 10SM CLR 17/14 A3006 RMK AO2 SLP170 T01720144 10206 20167 58009
KAOO 300453Z AUTO 14004KT 10SM CLR 17/15 A3008 RMK AO2 SLP176 T01720150 402830172